Time;durP1;ratioP1;P1;durP2;ratioP2;P2;SDS_P1;SDS_P2;PMS_P1;PMS_P2;Temp;Humidity;BMP_temperature;BMP_pressure;BME280_temperature;BME280_humidity;BME280_pressure;Samples;Min_cycle;Max_cycle;Signal;HPM_P1;HPM_P2
2023/06/04 00:00:20;;;;;;;1.67;0.70;;;;;;;26.54;30.26;102059.94;5020763;28;98250;-81
2023/06/04 00:02:47;;;;;;;0.90;0.50;;;;;;;26.53;30.39;102060.97;5021723;28;98253;-81
2023/06/04 00:05:14;;;;;;;0.60;0.60;;;;;;;26.55;30.29;102063.53;5019930;28;97149;-82
2023/06/04 00:07:40;;;;;;;1.02;0.68;;;;;;;26.53;30.45;102060.97;5020592;28;96825;-81
2023/06/04 00:10:07;;;;;;;1.33;0.50;;;;;;;26.53;30.24;102060.97;5021589;28;97587;-81
2023/06/04 00:12:34;;;;;;;0.98;0.60;;;;;;;26.53;30.44;102049.09;5020049;28;96710;-81
2023/06/04 00:15:00;;;;;;;0.88;0.60;;;;;;;26.52;30.51;102047.38;5020141;28;96657;-81
2023/06/04 00:17:27;;;;;;;0.90;0.45;;;;;;;26.52;30.28;102051.00;5005602;28;97712;-82
2023/06/04 00:19:54;;;;;;;1.13;0.70;;;;;;;26.50;30.29;102047.56;5023080;28;97800;-82
2023/06/04 00:22:21;;;;;;;0.70;0.60;;;;;;;26.51;30.52;102046.53;5007191;28;100280;-81
2023/06/04 00:24:47;;;;;;;0.75;0.50;;;;;;;26.52;30.48;102053.75;5020698;28;97929;-81
2023/06/04 00:27:14;;;;;;;1.30;0.70;;;;;;;26.51;30.23;102054.78;5021471;28;96786;-82
2023/06/04 00:29:40;;;;;;;1.13;0.70;;;;;;;26.50;30.45;102050.31;5020535;28;96922;-81
2023/06/04 00:32:07;;;;;;;1.23;0.68;;;;;;;26.50;30.56;102050.31;5010391;28;99366;-81
2023/06/04 00:34:34;;;;;;;0.80;0.50;;;;;;;26.50;30.56;102055.84;5018587;28;97093;-81
2023/06/04 00:37:01;;;;;;;1.33;0.55;;;;;;;26.50;30.21;102053.06;5023609;28;96856;-82
2023/06/04 00:39:29;;;;;;;0.75;0.40;;;;;;;26.50;30.54;102046.72;5002079;28;99067;-82
2023/06/04 00:41:56;;;;;;;0.47;0.47;;;;;;;26.49;30.45;102045.84;5017099;28;99073;-81
2023/06/04 00:44:24;;;;;;;0.73;0.60;;;;;;;26.49;30.64;102048.59;5016761;28;97170;-81
2023/06/04 00:46:53;;;;;;;1.02;0.50;;;;;;;26.49;30.46;102045.84;5018525;28;96820;-81
2023/06/04 00:49:20;;;;;;;0.80;0.47;;;;;;;26.49;30.41;102042.25;5015049;28;98307;-81
2023/06/04 00:51:48;;;;;;;0.90;0.60;;;;;;;26.48;30.54;102046.03;4998772;28;98177;-81
2023/06/04 00:54:17;;;;;;;0.70;0.60;;;;;;;26.47;30.60;102039.66;5017516;28;97931;-82
2023/06/04 00:56:44;;;;;;;0.73;0.52;;;;;;;26.46;30.59;102040.72;4990605;28;97330;-81
2023/06/04 00:59:11;;;;;;;0.50;0.40;;;;;;;26.46;30.63;102046.22;5017588;28;97719;-82
2023/06/04 01:02:04;;;;;;;0.80;0.50;;;;;;;26.47;30.57;102047.06;5014780;28;98818;-81
2023/06/04 01:04:55;;;;;;;0.90;0.47;;;;;;;26.45;30.54;102044.50;5014610;28;97255;-81
2023/06/04 01:07:23;;;;;;;0.77;0.50;;;;;;;26.45;30.42;102054.66;4997702;28;96866;-82
2023/06/04 01:09:50;;;;;;;0.90;0.45;;;;;;;26.44;30.55;102052.94;5016610;28;97019;-82
2023/06/04 01:12:17;;;;;;;0.60;0.55;;;;;;;26.43;30.51;102049.34;5017566;28;96874;-82
2023/06/04 01:14:43;;;;;;;0.90;0.60;;;;;;;26.43;30.79;102046.59;5015118;28;96951;-81
2023/06/04 01:17:17;;;;;;;0.82;0.40;;;;;;;26.45;30.56;102046.41;5016269;28;97322;-81
2023/06/04 01:20:04;;;;;;;0.73;0.60;;;;;;;26.43;30.71;102051.25;5000573;28;98910;-81
2023/06/04 01:22:54;;;;;;;0.95;0.60;;;;;;;26.43;30.80;102052.09;5000639;28;96894;-81
2023/06/04 01:25:26;;;;;;;0.70;0.52;;;;;;;26.42;30.83;102046.78;4999106;28;97148;-81
2023/06/04 01:27:56;;;;;;;0.73;0.55;;;;;;;26.41;30.63;102051.44;5013291;28;96939;-82
2023/06/04 01:30:26;;;;;;;1.13;0.63;;;;;;;26.41;30.60;102059.69;4984922;28;97865;-82
2023/06/04 01:32:54;;;;;;;0.50;0.43;;;;;;;26.40;30.91;102046.97;5015637;28;97251;-81
2023/06/04 01:35:21;;;;;;;1.10;0.63;;;;;;;26.42;30.60;102058.66;5015784;28;96743;-82
2023/06/04 01:37:48;;;;;;;0.63;0.50;;;;;;;26.41;30.56;102050.56;5016775;28;97706;-81
2023/06/04 01:40:15;;;;;;;0.57;0.40;;;;;;;26.41;30.79;102053.31;5014318;28;97007;-82
2023/06/04 01:42:42;;;;;;;0.95;0.60;;;;;;;26.40;31.01;102046.09;5011769;28;98006;-81
2023/06/04 01:45:09;;;;;;;0.57;0.40;;;;;;;26.41;30.82;102045.06;5013904;28;96749;-81
2023/06/04 01:47:36;;;;;;;1.80;0.73;;;;;;;26.41;30.60;102045.91;5015004;28;96942;-82
2023/06/04 01:50:10;;;;;;;1.20;0.70;;;;;;;26.41;30.73;102051.44;5015512;28;98067;-82
2023/06/04 01:52:37;;;;;;;0.77;0.57;;;;;;;26.40;30.79;102049.72;5013329;28;96900;-81
2023/06/04 01:55:05;;;;;;;0.80;0.60;;;;;;;26.40;30.75;102048.84;5002067;28;97194;-81
2023/06/04 01:57:31;;;;;;;0.73;0.55;;;;;;;26.40;30.73;102037.84;5016271;28;97449;-82
2023/06/04 01:59:58;;;;;;;0.75;0.40;;;;;;;26.39;30.51;102052.66;4983011;28;99249;-82
2023/06/04 02:02:25;;;;;;;1.25;0.50;;;;;;;26.39;30.83;102052.66;5000734;28;99397;-81
2023/06/04 02:04:52;;;;;;;0.65;0.57;;;;;;;26.38;30.83;102049.03;4995862;28;98174;-82
2023/06/04 02:07:22;;;;;;;0.80;0.52;;;;;;;26.37;30.68;102047.31;5012017;28;96886;-81
2023/06/04 02:09:49;;;;;;;0.57;0.47;;;;;;;26.38;30.83;102051.78;5011089;28;99622;-81
2023/06/04 02:12:16;;;;;;;0.60;0.43;;;;;;;26.38;30.80;102050.94;5011840;28;100747;-81
2023/06/04 02:14:44;;;;;;;0.65;0.40;;;;;;;26.38;30.64;102051.78;5011254;28;97097;-81
2023/06/04 02:17:16;;;;;;;1.00;0.60;;;;;;;26.37;30.72;102050.06;5012815;28;96908;-81
2023/06/04 02:19:50;;;;;;;0.65;0.60;;;;;;;26.37;30.74;102051.97;5011200;28;97243;-81
2023/06/04 02:22:18;;;;;;;0.55;0.50;;;;;;;26.36;30.95;102045.63;5011815;28;96883;-82
2023/06/04 02:24:46;;;;;;;0.70;0.50;;;;;;;26.36;30.86;102051.13;5012478;28;97321;-81
2023/06/04 02:27:12;;;;;;;0.95;0.52;;;;;;;26.36;30.98;102050.25;5013877;28;97979;-81
2023/06/04 02:29:39;;;;;;;0.55;0.40;;;;;;;26.35;30.77;102041.13;5011844;28;99680;-81
2023/06/04 02:32:07;;;;;;;1.10;0.50;;;;;;;26.35;30.90;102046.66;5013256;28;97307;-81
2023/06/04 02:34:34;;;;;;;1.88;0.60;;;;;;;26.35;30.86;102043.03;5012340;28;97178;-82
2023/06/04 02:37:02;;;;;;;0.82;0.50;;;;;;;26.35;30.85;102041.13;4998697;28;96876;-81
2023/06/04 02:39:28;;;;;;;0.90;0.60;;;;;;;26.35;30.82;102037.53;4996459;28;101138;-81
2023/06/04 02:41:55;;;;;;;0.85;0.40;;;;;;;26.35;30.82;102043.03;5013192;28;97578;-81
2023/06/04 02:44:22;;;;;;;1.20;0.60;;;;;;;26.34;30.75;102042.19;5011421;28;96738;-81
2023/06/04 02:46:50;;;;;;;0.80;0.50;;;;;;;26.33;30.97;102040.47;5011226;28;96966;-81
2023/06/04 02:49:17;;;;;;;1.02;0.52;;;;;;;26.34;30.96;102047.69;4980095;28;98135;-81
2023/06/04 02:51:44;;;;;;;0.80;0.52;;;;;;;26.34;30.92;102046.84;5014199;28;98705;-81
2023/06/04 02:54:11;;;;;;;1.13;0.70;;;;;;;26.34;30.87;102047.69;5014692;28;97427;-81
2023/06/04 02:56:38;;;;;;;1.05;0.40;;;;;;;26.34;30.92;102044.09;5014761;28;96934;-82
2023/06/04 02:59:05;;;;;;;0.60;0.40;;;;;;;26.33;30.77;102050.63;5013439;28;97764;-82
2023/06/04 03:01:32;;;;;;;0.63;0.50;;;;;;;26.32;30.87;102047.00;5012864;28;98796;-81
2023/06/04 03:04:01;;;;;;;0.88;0.50;;;;;;;26.33;30.95;102050.63;5016049;28;96859;-82
2023/06/04 03:06:29;;;;;;;0.98;0.70;;;;;;;26.33;31.06;102053.38;5014354;28;97215;-81
2023/06/04 03:08:55;;;;;;;0.60;0.50;;;;;;;26.32;31.04;102054.41;5013885;28;97925;-82
2023/06/04 03:11:22;;;;;;;0.40;0.30;;;;;;;26.32;30.97;102057.16;4980885;28;97278;-79
2023/06/04 03:13:49;;;;;;;0.70;0.50;;;;;;;26.31;30.68;102059.03;5008851;28;96844;-79
2023/06/04 03:16:16;;;;;;;0.60;0.40;;;;;;;26.29;31.00;102050.97;5007171;28;97152;-79
2023/06/04 03:18:44;;;;;;;0.50;0.40;;;;;;;26.31;30.99;102058.19;5006570;28;98909;-79
2023/06/04 03:21:13;;;;;;;0.95;0.50;;;;;;;26.30;31.00;102051.81;5008311;28;100832;-79
2023/06/04 03:23:40;;;;;;;1.02;0.50;;;;;;;26.30;30.88;102043.56;4993283;28;96714;-79
2023/06/04 03:26:07;;;;;;;0.45;0.45;;;;;;;26.30;30.94;102049.06;5008485;28;96871;-79
2023/06/04 03:28:34;;;;;;;0.88;0.50;;;;;;;26.29;31.00;102050.09;5007642;28;99763;-79
2023/06/04 03:31:03;;;;;;;0.60;0.40;;;;;;;26.29;31.02;102047.34;5009064;28;98829;-79
2023/06/04 03:33:30;;;;;;;0.88;0.50;;;;;;;26.29;30.83;102050.09;5009253;28;96894;-80
2023/06/04 03:35:59;;;;;;;0.80;0.70;;;;;;;26.29;30.95;102059.22;5011223;28;97954;-78
2023/06/04 03:38:26;;;;;;;0.50;0.40;;;;;;;26.29;30.85;102052.88;5009339;28;97388;-79
2023/06/04 03:40:53;;;;;;;0.73;0.50;;;;;;;26.29;31.05;102041.84;4993072;28;99690;-79
2023/06/04 03:43:20;;;;;;;0.93;0.60;;;;;;;26.28;31.06;102049.25;5009146;28;96927;-79
2023/06/04 03:45:50;;;;;;;1.00;0.50;;;;;;;26.29;30.93;102044.59;5009409;28;97104;-79
2023/06/04 03:48:17;;;;;;;0.70;0.50;;;;;;;26.29;30.94;102048.22;5008240;28;100947;-79
2023/06/04 03:50:45;;;;;;;0.95;0.50;;;;;;;26.28;30.79;102052.00;5010756;28;97221;-79
2023/06/04 03:53:13;;;;;;;0.80;0.43;;;;;;;26.28;31.10;102052.00;5009013;28;96821;-79
2023/06/04 03:55:40;;;;;;;0.60;0.50;;;;;;;26.28;30.82;102054.75;4994802;28;96830;-79
2023/06/04 03:58:09;;;;;;;0.55;0.50;;;;;;;26.28;31.16;102051.16;5010502;28;97373;-79
2023/06/04 04:00:38;;;;;;;0.68;0.50;;;;;;;26.27;30.70;102053.03;5008871;28;99113;-79
2023/06/04 04:03:07;;;;;;;0.60;0.50;;;;;;;26.27;31.02;102054.94;5025704;28;97126;-81
2023/06/04 04:05:35;;;;;;;0.63;0.50;;;;;;;26.27;31.04;102058.56;5017626;28;97357;-81
2023/06/04 04:08:03;;;;;;;0.60;0.40;;;;;;;26.27;30.79;102054.94;5017297;28;99440;-81
2023/06/04 04:10:32;;;;;;;0.50;0.35;;;;;;;26.26;30.95;102053.22;5017686;28;99203;-80
2023/06/04 04:12:59;;;;;;;0.70;0.45;;;;;;;26.26;31.53;102054.09;5019834;28;96803;-80
2023/06/04 04:15:29;;;;;;;0.50;0.35;;;;;;;26.26;30.93;102056.84;5018336;28;98290;-81
2023/06/04 04:17:56;;;;;;;0.70;0.43;;;;;;;26.27;30.95;102054.94;5002086;28;99668;-80
2023/06/04 04:20:23;;;;;;;0.55;0.40;;;;;;;26.26;30.99;102054.09;5016265;28;99119;-80
2023/06/04 04:22:54;;;;;;;1.58;0.55;;;;;;;26.26;30.94;102056.84;5017606;28;98309;-80
2023/06/04 04:25:23;;;;;;;0.60;0.40;;;;;;;26.26;31.09;102064.25;5002994;28;96738;-80
2023/06/04 04:27:50;;;;;;;0.55;0.47;;;;;;;26.25;31.06;102051.50;5016871;28;99187;-80
2023/06/04 04:30:17;;;;;;;0.68;0.50;;;;;;;26.27;31.00;102054.94;5016809;28;98937;-81
2023/06/04 04:32:51;;;;;;;0.70;0.50;;;;;;;26.26;31.02;102058.72;5017985;28;97220;-80
2023/06/04 04:35:26;;;;;;;0.73;0.55;;;;;;;26.25;31.18;102057.88;5016660;28;96912;-80
2023/06/04 04:37:57;;;;;;;1.80;0.50;;;;;;;26.25;31.11;102057.88;4985352;28;97762;-80
2023/06/04 04:40:25;;;;;;;0.50;0.40;;;;;;;26.25;31.21;102055.13;5017777;28;99810;-80
2023/06/04 04:42:53;;;;;;;0.47;0.40;;;;;;;26.25;31.00;102068.91;4987635;28;97052;-81
2023/06/04 04:45:20;;;;;;;0.60;0.30;;;;;;;26.26;31.25;102072.50;5017521;28;97629;-80
2023/06/04 04:47:50;;;;;;;0.68;0.47;;;;;;;26.25;30.88;102059.78;5016521;28;99515;-81
2023/06/04 04:50:18;;;;;;;1.10;0.60;;;;;;;26.24;31.07;102061.66;4999606;28;100209;-80
2023/06/04 04:52:45;;;;;;;0.80;0.50;;;;;;;26.25;31.19;102070.78;4998391;28;97506;-81
2023/06/04 04:55:12;;;;;;;1.73;0.55;;;;;;;26.24;31.15;102067.19;5017022;28;97594;-81
2023/06/04 04:57:40;;;;;;;0.63;0.30;;;;;;;26.23;31.26;102059.97;4984701;28;98743;-81
2023/06/04 05:00:09;;;;;;;0.90;0.40;;;;;;;26.24;31.04;102069.06;5029915;28;100453;-80
2023/06/04 05:02:38;;;;;;;1.58;0.50;;;;;;;26.23;31.39;102078.38;5030289;28;97277;-80
2023/06/04 05:05:06;;;;;;;0.90;0.50;;;;;;;26.24;30.95;102074.59;5013956;28;97185;-81
2023/06/04 05:07:33;;;;;;;1.10;0.40;;;;;;;26.23;31.09;102076.47;4983259;28;98746;-80
2023/06/04 05:10:00;;;;;;;0.50;0.40;;;;;;;26.24;31.23;102074.59;5013065;28;99155;-81
2023/06/04 05:12:30;;;;;;;0.35;0.30;;;;;;;26.23;31.32;102073.72;5015977;28;96842;-80
2023/06/04 05:14:58;;;;;;;1.00;0.55;;;;;;;26.23;31.04;102076.47;5016206;28;97439;-80
2023/06/04 05:17:29;;;;;;;0.50;0.40;;;;;;;26.24;31.00;102074.59;5015164;28;100979;-80
2023/06/04 05:20:04;;;;;;;0.55;0.40;;;;;;;26.23;30.88;102076.47;5015010;28;99087;-80
2023/06/04 05:22:36;;;;;;;0.60;0.38;;;;;;;26.23;31.24;102076.47;5013572;28;97022;-80
2023/06/04 05:25:04;;;;;;;0.82;0.50;;;;;;;26.23;31.03;102068.22;5011311;28;96999;-80
2023/06/04 05:27:32;;;;;;;0.80;0.40;;;;;;;26.23;31.08;102072.88;5007533;28;98925;-80
2023/06/04 05:30:00;;;;;;;0.73;0.43;;;;;;;26.24;30.90;102080.94;4991668;28;100778;-80
2023/06/04 05:32:28;;;;;;;0.90;0.50;;;;;;;26.24;31.36;102077.34;4992389;28;97189;-80
2023/06/04 05:34:58;;;;;;;0.38;0.30;;;;;;;26.25;31.38;102077.16;5008566;28;96735;-80
2023/06/04 05:37:28;;;;;;;0.60;0.40;;;;;;;26.25;31.07;102084.56;5007977;28;96809;-80
2023/06/04 05:39:56;;;;;;;1.00;0.57;;;;;;;26.24;31.13;102075.44;5011396;28;99130;-79
2023/06/04 05:42:23;;;;;;;0.63;0.40;;;;;;;26.25;31.12;102074.41;5011907;28;98039;-80
2023/06/04 05:44:50;;;;;;;0.98;0.40;;;;;;;26.26;31.14;102073.38;5012032;28;97070;-80
2023/06/04 05:47:18;;;;;;;0.60;0.50;;;;;;;26.26;31.37;102078.00;5011176;28;99260;-80
2023/06/04 05:49:46;;;;;;;0.40;0.40;;;;;;;26.26;31.23;102080.78;4996202;28;100197;-79
2023/06/04 05:52:12;;;;;;;0.60;0.30;;;;;;;26.26;31.40;102084.38;5011110;28;96796;-79
2023/06/04 05:54:41;;;;;;;0.50;0.40;;;;;;;26.26;31.38;102086.28;5010305;28;97201;-79
2023/06/04 05:57:07;;;;;;;0.85;0.50;;;;;;;26.26;31.46;102087.13;4994539;28;99478;-80
2023/06/04 05:59:34;;;;;;;0.63;0.30;;;;;;;26.27;31.19;102086.09;5011162;28;99404;-80
2023/06/04 06:02:03;;;;;;;0.50;0.40;;;;;;;26.27;31.30;102076.97;5012656;28;96845;-80
2023/06/04 06:04:30;;;;;;;0.57;0.47;;;;;;;26.27;31.38;102082.47;5011204;28;96821;-80
2023/06/04 06:07:01;;;;;;;2.42;0.57;;;;;;;26.27;31.31;102079.72;5012394;28;99697;-79
2023/06/04 06:09:33;;;;;;;0.90;0.50;;;;;;;26.26;31.31;102089.03;4990087;28;97490;-80
2023/06/04 06:11:59;;;;;;;1.15;0.47;;;;;;;26.27;31.22;102085.22;5013862;28;96677;-81
2023/06/04 06:14:26;;;;;;;0.47;0.40;;;;;;;26.28;31.28;102084.19;5015011;28;96704;-81
2023/06/04 06:16:53;;;;;;;0.30;0.30;;;;;;;26.29;31.28;102083.16;5012433;28;101161;-81
2023/06/04 06:19:20;;;;;;;0.70;0.40;;;;;;;26.29;31.36;102083.16;5014535;28;99075;-81
2023/06/04 06:21:47;;;;;;;0.68;0.30;;;;;;;26.28;31.22;102084.19;5015026;28;96882;-81
2023/06/04 06:24:13;;;;;;;0.70;0.50;;;;;;;26.28;31.27;102087.81;5005392;28;97374;-81
2023/06/04 06:26:40;;;;;;;0.43;0.32;;;;;;;26.29;31.59;102091.41;5014518;28;97308;-80
2023/06/04 06:29:09;;;;;;;0.60;0.30;;;;;;;26.28;31.22;102086.94;5012918;28;99429;-80
2023/06/04 06:31:36;;;;;;;0.82;0.50;;;;;;;26.29;31.24;102097.78;5014563;28;97215;-81
2023/06/04 06:34:02;;;;;;;0.50;0.40;;;;;;;26.29;31.23;102095.03;5018348;28;97411;-81
2023/06/04 06:36:29;;;;;;;1.42;0.30;;;;;;;26.30;31.34;102095.88;5016331;28;98180;-81
2023/06/04 06:38:56;;;;;;;0.52;0.40;;;;;;;26.29;31.17;102095.03;5016841;28;97307;-81
2023/06/04 06:41:22;;;;;;;0.88;0.50;;;;;;;26.29;31.24;102094.16;5016025;28;96671;-81
2023/06/04 06:43:50;;;;;;;1.02;0.45;;;;;;;26.29;31.46;102095.03;5013853;28;96773;-80
2023/06/04 06:46:17;;;;;;;0.40;0.22;;;;;;;26.30;31.53;102101.41;5015833;28;97506;-81
2023/06/04 06:48:45;;;;;;;0.60;0.30;;;;;;;26.31;31.39;102108.63;5016141;28;96746;-81
2023/06/04 06:51:12;;;;;;;0.80;0.40;;;;;;;26.31;30.94;102107.75;5015151;28;97050;-81
2023/06/04 06:53:39;;;;;;;0.75;0.50;;;;;;;26.31;31.38;102105.00;5013939;28;97349;-82
2023/06/04 06:56:06;;;;;;;1.65;0.50;;;;;;;26.32;31.45;102106.72;5015535;28;98388;-81
2023/06/04 06:58:34;;;;;;;0.55;0.32;;;;;;;26.31;31.47;102108.63;5015249;28;96917;-81
2023/06/04 07:01:02;;;;;;;1.15;0.50;;;;;;;26.32;31.33;102112.22;5014734;28;97120;-81
2023/06/04 07:03:28;;;;;;;0.85;0.47;;;;;;;26.31;31.10;102114.13;5017432;28;97967;-81
2023/06/04 07:05:55;;;;;;;0.50;0.50;;;;;;;26.32;31.36;102115.84;5015530;28;97953;-81
2023/06/04 07:08:21;;;;;;;1.73;0.60;;;;;;;26.31;31.27;102111.38;5019039;28;96877;-80
2023/06/04 07:10:48;;;;;;;1.40;0.70;;;;;;;26.32;31.35;102115.00;5019088;28;96811;-81
2023/06/04 07:13:15;;;;;;;2.13;0.50;;;;;;;26.32;31.05;102113.09;5020068;28;96672;-81
2023/06/04 07:15:42;;;;;;;0.47;0.43;;;;;;;26.33;31.51;102119.50;5019985;28;97197;-80
2023/06/04 07:18:08;;;;;;;0.75;0.50;;;;;;;26.34;31.43;102118.44;5018620;28;96658;-81
2023/06/04 07:20:35;;;;;;;0.95;0.60;;;;;;;26.34;31.55;102121.19;5018687;28;97099;-81
2023/06/04 07:23:02;;;;;;;0.73;0.50;;;;;;;26.34;31.46;102124.81;5019159;28;96852;-81
2023/06/04 07:25:28;;;;;;;1.17;0.73;;;;;;;26.34;31.43;102123.97;5017647;28;97218;-81
2023/06/04 07:27:58;;;;;;;1.40;0.50;;;;;;;26.34;31.62;102124.81;5017381;28;97879;-82
2023/06/04 07:30:25;;;;;;;1.20;0.63;;;;;;;26.35;31.70;102125.69;5017279;28;96975;-81
2023/06/04 07:32:52;;;;;;;1.10;0.40;;;;;;;26.35;31.49;102123.78;5017677;28;96757;-81
2023/06/04 07:35:19;;;;;;;2.05;0.50;;;;;;;26.34;31.37;102119.31;5008574;28;99450;-81
2023/06/04 07:37:48;;;;;;;0.60;0.40;;;;;;;26.36;31.80;102122.72;5012476;28;96635;-81
2023/06/04 07:40:15;;;;;;;1.00;0.60;;;;;;;26.35;31.43;102121.03;5018597;28;96586;-80
2023/06/04 07:42:42;;;;;;;1.25;0.40;;;;;;;26.36;31.66;102124.63;5018340;28;96830;-81
2023/06/04 07:45:10;;;;;;;1.67;0.52;;;;;;;26.36;31.49;102113.63;5016425;28;97256;-79
2023/06/04 07:47:36;;;;;;;0.95;0.52;;;;;;;26.36;31.61;102114.47;4999016;28;99655;-81
2023/06/04 07:50:05;;;;;;;1.20;0.70;;;;;;;26.36;31.54;102114.47;5000709;28;97105;-81
2023/06/04 07:52:43;;;;;;;0.82;0.52;;;;;;;26.35;31.81;102121.03;5002691;28;96783;-81
2023/06/04 07:55:09;;;;;;;1.27;0.57;;;;;;;26.37;31.16;102120.84;5014301;28;99179;-81
2023/06/04 07:57:36;;;;;;;0.80;0.47;;;;;;;26.37;31.72;102124.44;5017189;28;96809;-81
2023/06/04 08:00:04;;;;;;;0.52;0.40;;;;;;;26.37;31.62;102112.56;4980743;28;96947;-81
2023/06/04 08:02:37;;;;;;;0.70;0.50;;;;;;;26.37;31.75;102115.31;5009858;28;96613;-81
2023/06/04 08:05:04;;;;;;;0.95;0.60;;;;;;;26.37;31.60;102116.19;5014736;28;98890;-80
2023/06/04 08:07:31;;;;;;;0.85;0.50;;;;;;;26.38;31.72;102120.66;5017455;28;97666;-81
2023/06/04 08:09:57;;;;;;;1.02;0.55;;;;;;;26.38;31.45;102119.81;5008603;28;96698;-81
2023/06/04 08:12:24;;;;;;;1.60;0.77;;;;;;;26.39;31.63;102116.00;4997871;28;96738;-81
2023/06/04 08:14:50;;;;;;;0.70;0.50;;;;;;;26.38;31.65;102120.66;5016422;28;96576;-81
2023/06/04 08:17:17;;;;;;;0.80;0.50;;;;;;;26.39;31.41;102116.00;5016377;28;97647;-81
2023/06/04 08:19:44;;;;;;;0.90;0.50;;;;;;;26.39;31.43;102116.88;5015845;28;96660;-81
2023/06/04 08:22:11;;;;;;;0.77;0.50;;;;;;;26.39;31.96;102114.09;5014824;28;97539;-82
2023/06/04 08:24:38;;;;;;;0.70;0.40;;;;;;;26.40;31.62;102121.34;5016495;28;97329;-82
2023/06/04 08:27:07;;;;;;;0.95;0.50;;;;;;;26.40;31.42;102118.56;5014317;28;98163;-80
2023/06/04 08:29:35;;;;;;;0.73;0.50;;;;;;;26.41;31.76;102123.03;5017159;28;97083;-81
2023/06/04 08:32:02;;;;;;;1.65;0.50;;;;;;;26.40;31.78;102126.84;5016961;28;96806;-81
2023/06/04 08:34:29;;;;;;;0.85;0.50;;;;;;;26.39;31.88;102119.63;5013612;28;98091;-80
2023/06/04 08:36:56;;;;;;;0.65;0.45;;;;;;;26.42;31.89;102127.50;4986871;28;98896;-81
2023/06/04 08:39:23;;;;;;;1.92;0.70;;;;;;;26.41;32.20;102128.56;5016156;28;97183;-80
2023/06/04 08:41:52;;;;;;;0.80;0.60;;;;;;;26.42;31.72;102123.91;5016330;28;96855;-81
2023/06/04 08:44:18;;;;;;;1.13;0.60;;;;;;;26.41;31.88;102125.81;5014675;28;97867;-81
2023/06/04 08:46:50;;;;;;;1.10;0.70;;;;;;;26.42;31.65;102124.75;5015466;28;96644;-81
2023/06/04 08:49:20;;;;;;;1.10;0.60;;;;;;;26.42;31.68;102121.16;5013713;28;97235;-81
2023/06/04 08:51:47;;;;;;;0.60;0.43;;;;;;;26.42;31.77;102124.75;5014163;28;96735;-81
2023/06/04 08:54:14;;;;;;;0.63;0.55;;;;;;;26.42;31.82;102122.00;5015879;28;97136;-80
2023/06/04 08:56:43;;;;;;;1.08;0.57;;;;;;;26.43;31.76;102131.13;5014084;28;97598;-81
2023/06/04 08:59:10;;;;;;;0.90;0.63;;;;;;;26.43;31.83;102132.00;5014987;28;97262;-81
2023/06/04 09:01:37;;;;;;;0.98;0.60;;;;;;;26.42;31.81;102130.28;5015942;28;96989;-81
2023/06/04 09:04:05;;;;;;;0.90;0.55;;;;;;;26.44;31.78;102135.59;5015312;28;96988;-81
2023/06/04 09:06:37;;;;;;;0.88;0.65;;;;;;;26.43;31.67;102139.41;5026553;28;97237;-81
2023/06/04 09:09:08;;;;;;;0.88;0.63;;;;;;;26.44;31.66;102138.34;4995135;28;96973;-81
2023/06/04 09:11:41;;;;;;;1.05;0.40;;;;;;;26.44;31.89;102130.94;5003472;28;97141;-81
2023/06/04 09:14:09;;;;;;;0.70;0.50;;;;;;;26.44;31.86;102141.09;5013210;28;97692;-81
2023/06/04 09:16:50;;;;;;;0.73;0.40;;;;;;;26.45;31.80;102137.31;5015723;28;97264;-81
2023/06/04 09:19:18;;;;;;;0.90;0.50;;;;;;;26.44;31.92;102139.22;5013063;28;97440;-81
2023/06/04 09:21:51;;;;;;;1.10;0.50;;;;;;;26.46;31.51;102139.03;5013144;28;96926;-81
2023/06/04 09:24:19;;;;;;;0.70;0.50;;;;;;;26.44;31.69;102136.47;5011760;28;97613;-81
2023/06/04 09:26:46;;;;;;;1.17;0.60;;;;;;;26.44;31.94;102138.34;5013072;28;97511;-81
2023/06/04 09:29:13;;;;;;;1.25;0.60;;;;;;;26.45;32.04;102135.41;5014979;28;97416;-81
2023/06/04 09:31:40;;;;;;;0.60;0.50;;;;;;;26.45;31.86;102135.41;5014390;28;96749;-81
2023/06/04 09:34:06;;;;;;;0.70;0.50;;;;;;;26.46;31.89;102128.88;5010008;28;96747;-79
2023/06/04 09:36:34;;;;;;;0.75;0.40;;;;;;;26.46;31.86;102139.03;5008036;28;96869;-79
2023/06/04 09:39:03;;;;;;;2.55;0.60;;;;;;;26.46;31.87;102128.88;5009607;28;96789;-79
2023/06/04 09:41:29;;;;;;;0.80;0.60;;;;;;;26.46;31.81;102134.38;5009829;28;96944;-79
2023/06/04 09:44:02;;;;;;;1.73;0.70;;;;;;;26.48;31.87;102131.44;5009493;28;96781;-79
2023/06/04 09:46:30;;;;;;;0.98;0.50;;;;;;;26.47;31.69;102127.81;5010442;28;97165;-81
2023/06/04 09:49:04;;;;;;;0.60;0.47;;;;;;;26.47;31.97;102124.22;5002127;28;96737;-81
2023/06/04 09:51:32;;;;;;;0.95;0.35;;;;;;;26.47;31.88;102124.22;5016385;28;96819;-81
2023/06/04 09:54:03;;;;;;;0.90;0.52;;;;;;;26.47;31.68;102130.59;5011566;28;96842;-81
2023/06/04 09:56:39;;;;;;;0.60;0.50;;;;;;;26.48;31.93;102132.28;5015148;28;97784;-81
2023/06/04 09:59:08;;;;;;;0.70;0.50;;;;;;;26.48;31.60;102129.53;5014252;28;96667;-81
2023/06/04 10:01:39;;;;;;;0.90;0.55;;;;;;;26.48;31.67;102123.19;5014858;28;96957;-81
2023/06/04 10:04:08;;;;;;;0.85;0.60;;;;;;;26.47;31.79;102125.06;5014773;28;97273;-81
2023/06/04 10:06:36;;;;;;;0.57;0.45;;;;;;;26.47;31.77;102119.56;5012762;28;96802;-81
2023/06/04 10:09:10;;;;;;;1.25;0.50;;;;;;;26.49;31.68;102127.66;4993283;28;96908;-80
2023/06/04 10:11:44;;;;;;;0.50;0.40;;;;;;;26.49;31.87;102127.66;5014974;28;96915;-81
2023/06/04 10:14:24;;;;;;;0.63;0.50;;;;;;;26.48;31.86;102123.19;5011365;28;98049;-81
2023/06/04 10:16:56;;;;;;;1.42;0.55;;;;;;;26.48;31.73;102132.28;5009749;28;97961;-81
2023/06/04 10:19:24;;;;;;;1.15;0.60;;;;;;;26.47;31.75;102132.47;5007841;28;96786;-80
2023/06/04 10:21:52;;;;;;;0.57;0.47;;;;;;;26.47;32.00;102125.06;5008338;28;96623;-81
2023/06/04 10:24:20;;;;;;;0.60;0.50;;;;;;;26.48;31.86;102114.91;4999158;28;97285;-81
2023/06/04 10:26:48;;;;;;;1.02;0.60;;;;;;;26.48;31.80;102124.03;5012837;28;98363;-80
2023/06/04 10:29:16;;;;;;;0.80;0.60;;;;;;;26.48;31.86;102118.53;5011656;28;96805;-81
2023/06/04 10:31:42;;;;;;;0.68;0.40;;;;;;;26.49;31.82;102117.47;5012663;28;98759;-82
2023/06/04 10:34:09;;;;;;;1.40;0.60;;;;;;;26.49;31.62;102114.72;5007967;28;97229;-81
2023/06/04 10:36:45;;;;;;;0.63;0.43;;;;;;;26.50;31.90;102118.34;5012272;28;96869;-82
2023/06/04 10:39:12;;;;;;;0.68;0.50;;;;;;;26.49;32.09;102131.25;5001662;28;96737;-81
2023/06/04 10:41:39;;;;;;;1.30;0.60;;;;;;;26.48;31.81;102120.41;5018133;28;96815;-81
2023/06/04 10:44:06;;;;;;;0.55;0.43;;;;;;;26.49;31.97;102128.50;5019161;28;97312;-81
2023/06/04 10:46:43;;;;;;;0.90;0.50;;;;;;;26.50;31.76;102121.94;5019732;28;99508;-81
2023/06/04 10:49:14;;;;;;;0.73;0.47;;;;;;;26.48;31.76;102126.78;4986145;28;97011;-81
2023/06/04 10:51:41;;;;;;;1.10;0.38;;;;;;;26.49;31.82;102123.00;5001748;28;97306;-80
2023/06/04 10:54:08;;;;;;;0.85;0.50;;;;;;;26.49;31.71;102120.25;5016692;28;99044;-82
2023/06/04 10:56:35;;;;;;;0.88;0.50;;;;;;;26.49;31.83;102117.47;5016441;28;100316;-81
2023/06/04 10:59:14;;;;;;;0.63;0.30;;;;;;;26.50;31.97;102121.94;5016618;28;96999;-80
2023/06/04 11:01:40;;;;;;;1.27;0.55;;;;;;;26.49;31.70;102116.63;5015474;28;96971;-81
2023/06/04 11:04:21;;;;;;;0.90;0.45;;;;;;;26.51;31.74;102125.56;5016111;28;96862;-80
2023/06/04 11:07:09;;;;;;;0.85;0.65;;;;;;;26.49;31.80;102123.00;5012597;28;97383;-81
2023/06/04 11:09:37;;;;;;;0.77;0.50;;;;;;;26.49;31.79;102123.00;5011561;28;96836;-80
2023/06/04 11:12:05;;;;;;;0.63;0.40;;;;;;;26.49;31.85;102122.13;4994684;28;97407;-80
2023/06/04 11:14:32;;;;;;;0.50;0.43;;;;;;;26.50;31.76;102124.72;5009813;28;100281;-81
2023/06/04 11:17:12;;;;;;;0.63;0.47;;;;;;;26.50;31.69;102121.94;5012615;28;96795;-81
2023/06/04 11:19:39;;;;;;;2.28;0.52;;;;;;;26.49;31.73;102114.72;5008467;28;96798;-81
2023/06/04 11:22:05;;;;;;;0.68;0.50;;;;;;;26.50;31.75;102115.59;5013008;28;97136;-81
2023/06/04 11:24:32;;;;;;;1.10;0.50;;;;;;;26.50;31.78;102101.81;5010981;28;97880;-81
2023/06/04 11:26:59;;;;;;;0.80;0.60;;;;;;;26.50;31.78;102104.56;5011820;28;96772;-81
2023/06/04 11:29:32;;;;;;;0.60;0.40;;;;;;;26.49;31.76;102102.84;5011247;28;96778;-81